Thunder radar more information blitzortung!


Radar de pluja more information rain snow radar


Visita la nostra xarxa de llocs de meteo:

Template documentation
and downloads

And another site



Wind From: 11-12-2017 11:00 Until: 14:59 warning for: Wind Level: Yellow info button

Pagina Historial Weather Underground text

Diari Resum Juliol 16, 2017 Unitats:  Mètric    Imperial   Tant
« Previous Dia
SegĂźent Dia »
Diari Setmana Mensual Anual Personalitzada
  Maxima: Minima: Media:
Temperatura: 32.8 °C 21.9 °C 25.7 °C
Punt de rosada: 21.3 °C 15.5 °C 16.8 °C
Humitat: 72 % 46 % 59 %
Wind Speed: 11.3 km/h 0.0 km/h 4.4 km/h
RĂ fegues de vent: 17.7 km/h - -
Vent:- - SSW
Pression baro: 1017.8 hPa 1015.8 hPa -
Precipitacions: 0.0 mm    
Historical Graphs
 
 
Dades de taula per Juliol 16, 2017
Temps Temperatura Punt de rosada Pression baro Vent Wind Speed RĂ fegues de vent Humitat Rainfall Rate (Hourly)
00:00 24.2 °C 18.4 °C 1016.8 hPa SW 4.7 km/h 4.7 km/h 70 % 0.0 mm
00:05 24.1 °C 18.3 °C 1016.8 hPa SW 5.6 km/h 5.6 km/h 70 % 0.0 mm
11:00 32.8 °C 21.3 °C 1017.8 hPa South 9.7 km/h 17.7 km/h 51 % 0.0 mm
11:10 32.5 °C 20.7 °C 1017.8 hPa SSW 3.2 km/h 6.4 km/h 50 % 0.0 mm
11:20 32.8 °C 20.7 °C 1017.8 hPa SSW 4.8 km/h 9.7 km/h 49 % 0.0 mm
11:30 32.3 °C 19.9 °C 1016.8 hPa SW 4.8 km/h 6.4 km/h 48 % 0.0 mm
11:40 32.4 °C 20.0 °C 1017.8 hPa SW 4.8 km/h 12.9 km/h 48 % 0.0 mm
11:50 32.8 °C 20.3 °C 1017.8 hPa SW 4.8 km/h 9.7 km/h 48 % 0.0 mm
12:00 32.8 °C 20.3 °C 1017.8 hPa SW 4.8 km/h 9.7 km/h 48 % 0.0 mm
12:10 32.5 °C 19.7 °C 1016.8 hPa SW 9.7 km/h 12.9 km/h 47 % 0.0 mm
12:20 32.1 °C 19.4 °C 1016.8 hPa SW 4.8 km/h 16.1 km/h 47 % 0.0 mm
12:30 32.5 °C 19.7 °C 1016.8 hPa SW 3.2 km/h 9.7 km/h 47 % 0.0 mm
12:40 32.1 °C 19.0 °C 1016.8 hPa WSW 4.8 km/h 4.8 km/h 46 % 0.0 mm
12:50 31.5 °C 18.8 °C 1016.8 hPa SW 8.0 km/h 12.9 km/h 47 % 0.0 mm
13:00 31.2 °C 18.6 °C 1015.8 hPa SSW 3.2 km/h 12.9 km/h 47 % 0.0 mm
13:10 31.0 °C 18.0 °C 1015.8 hPa SW 4.8 km/h 11.3 km/h 46 % 0.0 mm
13:20 30.8 °C 18.2 °C 1015.8 hPa SW 4.8 km/h 8.0 km/h 47 % 0.0 mm
13:30 30.3 °C 17.7 °C 1015.8 hPa SW 8.0 km/h 12.9 km/h 47 % 0.0 mm
13:50 30.2 °C 17.3 °C 1015.8 hPa SW 3.2 km/h 6.4 km/h 46 % 0.0 mm
14:00 30.0 °C 17.4 °C 1015.8 hPa SSW 3.2 km/h 4.8 km/h 47 % 0.0 mm
14:10 29.7 °C 17.2 °C 1015.8 hPa SE 3.2 km/h 4.8 km/h 47 % 0.0 mm
14:20 28.8 °C 17.0 °C 1015.8 hPa SE 4.8 km/h 6.4 km/h 49 % 0.0 mm
14:30 28.4 °C 16.7 °C 1015.8 hPa SSE 3.2 km/h 6.4 km/h 49 % 0.0 mm
14:40 27.7 °C 16.0 °C 1015.8 hPa East 11.3 km/h 12.9 km/h 49 % 0.0 mm
14:50 27.2 °C 15.9 °C 1015.8 hPa East 8.0 km/h 11.3 km/h 50 % 0.0 mm
15:00 27.1 °C 15.8 °C 1015.8 hPa ESE 8.0 km/h 12.9 km/h 50 % 0.0 mm
15:10 26.9 °C 15.9 °C 1016.8 hPa ESE 9.7 km/h 9.7 km/h 51 % 0.0 mm
15:20 26.9 °C 16.2 °C 1016.8 hPa ESE 4.8 km/h 9.7 km/h 52 % 0.0 mm
15:30 26.6 °C 15.9 °C 1016.8 hPa ESE 9.7 km/h 12.9 km/h 52 % 0.0 mm
15:40 26.3 °C 15.9 °C 1016.8 hPa ESE 8.0 km/h 8.0 km/h 53 % 0.0 mm
15:45 26.1 °C 15.8 °C 1016.8 hPa ESE 4.8 km/h 6.4 km/h 53 % 0.0 mm
19:20 23.0 °C 16.3 °C 1016.8 hPa WSW 1.6 km/h 4.8 km/h 66 % 0.0 mm
19:30 23.0 °C 16.3 °C 1017.8 hPa SW 3.2 km/h 4.8 km/h 66 % 0.0 mm
19:40 22.9 °C 16.2 °C 1017.8 hPa WSW 1.6 km/h 3.2 km/h 66 % 0.0 mm
19:50 22.8 °C 16.3 °C 1017.8 hPa WSW 3.2 km/h 3.2 km/h 67 % 0.0 mm
20:00 22.7 °C 16.3 °C 1017.8 hPa SW 3.2 km/h 4.8 km/h 67 % 0.0 mm
20:10 22.6 °C 16.4 °C 1017.8 hPa Calm   3.2 km/h 68 % 0.0 mm
20:20 22.6 °C 16.4 °C 1017.8 hPa Calm   1.6 km/h 68 % 0.0 mm
20:30 22.6 °C 16.6 °C 1017.8 hPa Calm   1.6 km/h 69 % 0.0 mm
20:40 22.6 °C 16.6 °C 1017.8 hPa WNW 1.6 km/h 3.2 km/h 69 % 0.0 mm
20:49 26.1 °C 15.8 °C 1016.8 hPa East 7.4 km/h 7.4 km/h 53 % 0.0 mm
20:50 22.3 °C 16.3 °C 1017.8 hPa Calm   1.6 km/h 69 % 0.0 mm
20:54 26.1 °C 15.8 °C 1016.8 hPa SE 9.0 km/h 9.0 km/h 53 % 0.0 mm
20:59 26.0 °C 15.7 °C 1016.8 hPa ESE 10.3 km/h 10.3 km/h 53 % 0.0 mm
21:00 22.3 °C 16.6 °C 1017.8 hPa Calm   3.2 km/h 70 % 0.0 mm
21:04 25.8 °C 15.5 °C 1016.8 hPa ESE 9.3 km/h 9.3 km/h 53 % 0.0 mm
21:09 25.7 °C 15.7 °C 1017.8 hPa SE 7.4 km/h 7.6 km/h 54 % 0.0 mm
21:10 22.4 °C 16.4 °C 1017.8 hPa WSW 1.6 km/h 3.2 km/h 69 % 0.0 mm
21:14 25.6 °C 15.6 °C 1017.8 hPa ESE 7.4 km/h 7.4 km/h 54 % 0.0 mm
21:20 25.6 °C 15.6 °C 1017.8 hPa East 4.8 km/h 9.7 km/h 54 % 0.0 mm
21:25 25.5 °C 15.5 °C 1017.8 hPa East 7.4 km/h 7.4 km/h 54 % 0.0 mm
21:30 25.5 °C 15.5 °C 1017.8 hPa East 7.4 km/h 7.4 km/h 54 % 0.0 mm
21:36 25.4 °C 15.7 °C 1017.8 hPa ENE 5.6 km/h 5.6 km/h 55 % 0.0 mm
21:40 22.4 °C 16.7 °C 1017.8 hPa SW 1.6 km/h 1.6 km/h 70 % 0.0 mm
21:41 25.3 °C 15.6 °C 1017.8 hPa SSE 3.7 km/h 3.7 km/h 55 % 0.0 mm
21:46 25.3 °C 15.6 °C 1017.8 hPa West 2.3 km/h   55 % 0.0 mm
21:50 22.4 °C 16.7 °C 1017.8 hPa SW 3.2 km/h 3.2 km/h 70 % 0.0 mm
21:51 25.2 °C 15.5 °C 1017.8 hPa Calm   1.4 km/h 55 % 0.0 mm
21:56 25.2 °C 15.5 °C 1017.8 hPa SW 2.3 km/h 2.6 km/h 55 % 0.0 mm
22:00 22.4 °C 16.7 °C 1017.8 hPa SW 3.2 km/h 4.8 km/h 70 % 0.0 mm
22:01 25.2 °C 15.5 °C 1017.8 hPa WSW 3.9 km/h 3.9 km/h 55 % 0.0 mm
22:06 25.1 °C 15.7 °C 1017.8 hPa WSW 3.7 km/h 3.7 km/h 56 % 0.0 mm
22:10 22.5 °C 16.8 °C 1016.8 hPa SW 1.6 km/h 4.8 km/h 70 % 0.0 mm
22:11 25.0 °C 15.9 °C 1017.8 hPa SW 3.7 km/h 3.9 km/h 57 % 0.0 mm
22:16 24.9 °C 16.1 °C 1017.8 hPa WSW 6.1 km/h 6.1 km/h 58 % 0.0 mm
22:20 22.6 °C 16.8 °C 1016.8 hPa SW 1.6 km/h 3.2 km/h 70 % 0.0 mm
22:21 24.8 °C 16.2 °C 1017.8 hPa West 7.4 km/h 7.4 km/h 59 % 0.0 mm
22:26 24.7 °C 16.2 °C 1017.8 hPa West 5.6 km/h 5.6 km/h 59 % 0.0 mm
22:30 22.6 °C 16.8 °C 1016.8 hPa SW 1.6 km/h 3.2 km/h 70 % 0.0 mm
22:31 24.6 °C 16.1 °C 1017.8 hPa SW 5.6 km/h 5.6 km/h 59 % 0.0 mm
22:36 24.5 °C 16.2 °C 1017.8 hPa WSW 5.6 km/h 5.6 km/h 60 % 0.0 mm
22:40 22.6 °C 16.8 °C 1016.8 hPa SW 3.2 km/h 3.2 km/h 70 % 0.0 mm
22:41 24.4 °C 16.1 °C 1017.8 hPa SSE 5.6 km/h 5.6 km/h 60 % 0.0 mm
22:47 24.3 °C 16.1 °C 1017.8 hPa SW 5.6 km/h 5.6 km/h 60 % 0.0 mm
22:50 22.6 °C 16.8 °C 1016.8 hPa WSW 1.6 km/h 3.2 km/h 70 % 0.0 mm
22:52 24.2 °C 16.2 °C 1017.8 hPa SSW 5.0 km/h 5.0 km/h 61 % 0.0 mm
22:57 24.2 °C 16.2 °C 1017.8 hPa SW 7.4 km/h 7.4 km/h 61 % 0.0 mm
23:00 22.3 °C 16.6 °C 1016.8 hPa WSW 1.6 km/h 3.2 km/h 70 % 0.0 mm
23:02 24.1 °C 16.1 °C 1017.8 hPa WSW 4.2 km/h 4.2 km/h 61 % 0.0 mm
23:07 24.0 °C 16.0 °C 1017.8 hPa SW 4.7 km/h 4.7 km/h 61 % 0.0 mm
23:10 22.2 °C 16.4 °C 1016.8 hPa SW 3.2 km/h 3.2 km/h 70 % 0.0 mm
23:12 23.9 °C 16.2 °C 1017.8 hPa SW 5.6 km/h 5.6 km/h 62 % 0.0 mm
23:17 23.9 °C 16.4 °C 1017.8 hPa SW 5.6 km/h 5.6 km/h 63 % 0.0 mm
23:20 22.1 °C 16.6 °C 1016.8 hPa Calm   3.2 km/h 71 % 0.0 mm
23:22 23.8 °C 16.3 °C 1016.8 hPa WSW 3.7 km/h 3.7 km/h 63 % 0.0 mm
23:27 23.7 °C 16.2 °C 1016.8 hPa SW 4.2 km/h 4.2 km/h 63 % 0.0 mm
23:30 22.0 °C 16.5 °C 1016.8 hPa Calm   1.6 km/h 71 % 0.0 mm
23:32 23.6 °C 16.2 °C 1016.8 hPa SW 3.7 km/h 3.9 km/h 63 % 0.0 mm
23:37 23.6 °C 16.2 °C 1016.8 hPa SW 3.7 km/h 3.7 km/h 63 % 0.0 mm
23:40 22.0 °C 16.5 °C 1016.8 hPa Calm   3.2 km/h 71 % 0.0 mm
23:42 23.5 °C 16.3 °C 1016.8 hPa WSW 3.7 km/h 3.7 km/h 64 % 0.0 mm
23:47 23.4 °C 16.2 °C 1016.8 hPa SW 5.6 km/h 5.6 km/h 64 % 0.0 mm
23:50 21.9 °C 16.6 °C 1016.8 hPa Calm   1.6 km/h 72 % 0.0 mm
23:52 23.4 °C 16.2 °C 1017.8 hPa SW 3.7 km/h 3.7 km/h 64 % 0.0 mm
23:57 23.3 °C 16.1 °C 1017.8 hPa SW 5.3 km/h 5.3 km/h 64 % 0.0 mm
Meteo Sesrovires
Elogis d' Weather Underground - 3 mb

Guio original per  Jim McMurry - jmcmurry@mwt.net Adaptat per a la plantilla per  Wim van der Kuil - Leuven-Template.eu

Trobareu la nostra informacio del temps tambe a:

Weather Underground

AWEKAS